PGT1840 LTAI-UGTB
Flight info
| Callsign | PGT1840 |
|---|---|
| Flight time | 0h 45m |
| Altitude | 36000 |
| Route | ADBEL UR55 MUT UA285 ERGEP/N0454F380 UA285 SELVI/N0456F370 UA285 SIV UW706 TBN UN61 NOLGA N61 LAGAS |
| Aircraft | A320/M-SDE3FGHIRWY/LB1 |
Departure
| Time | 2026-04-22 15:14 |
|---|---|
| Airport | Antalya International Airport (LTAI) |
Arrival
| Time | 2026-04-22 15:59 |
|---|---|
| Airport | Tbilisi International Airport (UGTB) |
| Time | Latitude | Longitude | Altitude | Speed | Heading |
|---|---|---|---|---|---|
| 2026-04-22 15:00 | 36.89497 | 30.80568 | 192 ft | 0 kts | 186° |
| 2026-04-22 15:08 | 36.89521 | 30.80570 | 194 ft | 4 kts | 183° |
| 2026-04-22 15:08 | 36.89547 | 30.80571 | 202 ft | 4 kts | 177° |
| 2026-04-22 15:08 | 36.89574 | 30.80568 | 198 ft | 2 kts | 167° |
| 2026-04-22 15:09 | 36.89576 | 30.80567 | 192 ft | 0 kts | 166° |
| 2026-04-22 15:10 | 36.89572 | 30.80595 | 192 ft | 7 kts | 93° |
| 2026-04-22 15:10 | 36.89571 | 30.80668 | 192 ft | 15 kts | 79° |
| 2026-04-22 15:10 | 36.89686 | 30.80710 | 199 ft | 19 kts | 4° |
| 2026-04-22 15:11 | 36.89856 | 30.80733 | 200 ft | 30 kts | 5° |
| 2026-04-22 15:11 | 36.90068 | 30.80760 | 192 ft | 31 kts | 6° |
| 2026-04-22 15:11 | 36.90290 | 30.80793 | 195 ft | 33 kts | 7° |
| 2026-04-22 15:11 | 36.90524 | 30.80825 | 203 ft | 35 kts | 6° |
| 2026-04-22 15:12 | 36.90766 | 30.80857 | 191 ft | 36 kts | 6° |
| 2026-04-22 15:12 | 36.91023 | 30.80895 | 200 ft | 37 kts | 7° |
| 2026-04-22 15:12 | 36.91137 | 30.80966 | 202 ft | 14 kts | 81° |
| 2026-04-22 15:12 | 36.91127 | 30.81089 | 196 ft | 16 kts | 97° |
| 2026-04-22 15:13 | 36.91065 | 30.81140 | 197 ft | 13 kts | 187° |
| 2026-04-22 15:13 | 36.90805 | 30.81098 | 191 ft | 74 kts | 186° |
| 2026-04-22 15:13 | 36.90078 | 30.80999 | 191 ft | 133 kts | 186° |
| 2026-04-22 15:13 | 36.89050 | 30.80883 | 578 ft | 151 kts | 183° |
| 2026-04-22 15:14 | 36.88005 | 30.80745 | 1325 ft | 151 kts | 185° |
| 2026-04-22 15:14 | 36.86962 | 30.80727 | 2107 ft | 152 kts | 166° |
| 2026-04-22 15:14 | 36.86312 | 30.81127 | 2393 ft | 167 kts | 141° |
| 2026-04-22 15:14 | 36.85769 | 30.82507 | 2738 ft | 197 kts | 97° |
| 2026-04-22 15:15 | 36.85799 | 30.84324 | 3076 ft | 220 kts | 88° |
| 2026-04-22 15:15 | 36.85915 | 30.86321 | 3500 ft | 242 kts | 86° |
| 2026-04-22 15:15 | 36.86064 | 30.88504 | 4191 ft | 258 kts | 86° |
| 2026-04-22 15:15 | 36.86217 | 30.90777 | 5125 ft | 264 kts | 88° |
| 2026-04-22 15:16 | 36.86362 | 30.93096 | 6015 ft | 272 kts | 87° |
| 2026-04-22 15:16 | 36.86503 | 30.95474 | 6867 ft | 278 kts | 87° |
| 2026-04-22 15:16 | 36.86639 | 30.97924 | 7656 ft | 287 kts | 88° |
| 2026-04-22 15:16 | 36.86773 | 31.00445 | 8468 ft | 294 kts | 87° |
| 2026-04-22 15:17 | 36.86909 | 31.03019 | 9346 ft | 300 kts | 86° |
| 2026-04-22 15:17 | 36.87051 | 31.05648 | 10141 ft | 308 kts | 85° |
| 2026-04-22 15:17 | 36.87206 | 31.08434 | 10489 ft | 332 kts | 85° |
| 2026-04-22 15:17 | 36.87371 | 31.11414 | 10770 ft | 356 kts | 86° |
| 2026-04-22 15:18 | 36.87544 | 31.14604 | 10992 ft | 379 kts | 86° |
| 2026-04-22 15:18 | 36.87722 | 31.17987 | 11253 ft | 399 kts | 86° |
| 2026-04-22 15:18 | 36.87902 | 31.21492 | 11842 ft | 407 kts | 86° |
| 2026-04-22 15:18 | 36.88080 | 31.24996 | 12482 ft | 413 kts | 86° |
| 2026-04-22 15:19 | 36.88260 | 31.28593 | 13162 ft | 417 kts | 86° |
| 2026-04-22 15:19 | 36.88441 | 31.32237 | 13805 ft | 423 kts | 86° |
| 2026-04-22 15:19 | 36.88624 | 31.35923 | 14383 ft | 428 kts | 86° |
| 2026-04-22 15:19 | 36.88813 | 31.39663 | 14952 ft | 432 kts | 86° |
| 2026-04-22 15:20 | 36.88999 | 31.43422 | 15536 ft | 435 kts | 85° |
| 2026-04-22 15:20 | 36.89189 | 31.47211 | 16118 ft | 439 kts | 85° |
| 2026-04-22 15:20 | 36.89383 | 31.51045 | 16646 ft | 444 kts | 85° |
| 2026-04-22 15:20 | 36.89576 | 31.54916 | 17219 ft | 447 kts | 85° |
| 2026-04-22 15:21 | 36.89790 | 31.59309 | 17829 ft | 451 kts | 85° |
| 2026-04-22 15:21 | 36.90543 | 31.75214 | 19790 ft | 465 kts | 86° |
| 2026-04-22 15:21 | 36.90265 | 31.91546 | 21563 ft | 476 kts | 92° |
| 2026-04-22 15:21 | 36.89779 | 32.08013 | 23124 ft | 487 kts | 90° |
| 2026-04-22 15:22 | 36.89398 | 32.25117 | 24428 ft | 497 kts | 91° |
| 2026-04-22 15:22 | 36.88934 | 32.42523 | 25573 ft | 506 kts | 91° |
| 2026-04-22 15:22 | 36.88430 | 32.60220 | 26645 ft | 514 kts | 91° |
| 2026-04-22 15:22 | 36.87930 | 32.77980 | 28337 ft | 508 kts | 91° |
| 2026-04-22 15:23 | 36.87388 | 32.95582 | 30002 ft | 505 kts | 92° |
| 2026-04-22 15:23 | 36.86838 | 33.13092 | 31322 ft | 505 kts | 91° |
| 2026-04-22 15:23 | 36.89124 | 33.30101 | 32577 ft | 496 kts | 58° |
| 2026-04-22 15:23 | 36.98108 | 33.42601 | 33875 ft | 483 kts | 37° |
| 2026-04-22 15:24 | 37.07977 | 33.54031 | 35063 ft | 483 kts | 37° |
| 2026-04-22 15:24 | 37.17873 | 33.65451 | 36002 ft | 485 kts | 37° |
| 2026-04-22 15:24 | 37.27801 | 33.76933 | 35866 ft | 489 kts | 37° |
| 2026-04-22 15:24 | 37.31683 | 33.81434 | 35964 ft | 485 kts | 38° |
| 2026-04-22 15:25 | 37.48998 | 34.01626 | 35881 ft | 485 kts | 38° |
| 2026-04-22 15:25 | 37.58892 | 34.13239 | 36012 ft | 481 kts | 38° |
| 2026-04-22 15:25 | 37.68802 | 34.24912 | 36026 ft | 487 kts | 38° |
| 2026-04-22 15:26 | 37.78677 | 34.36599 | 35875 ft | 490 kts | 38° |
| 2026-04-22 15:26 | 37.88528 | 34.48313 | 35950 ft | 483 kts | 38° |
| 2026-04-22 15:26 | 38.08210 | 34.71777 | 35886 ft | 489 kts | 38° |
| 2026-04-22 15:27 | 38.27809 | 34.95292 | 35943 ft | 488 kts | 38° |
| 2026-04-22 15:27 | 38.48007 | 35.18255 | 35926 ft | 484 kts | 34° |
| 2026-04-22 15:28 | 38.67560 | 35.42282 | 35918 ft | 488 kts | 41° |
| 2026-04-22 15:28 | 38.86709 | 35.66769 | 35917 ft | 488 kts | 41° |
| 2026-04-22 15:29 | 39.06188 | 35.91361 | 35935 ft | 488 kts | 39° |
| 2026-04-22 15:30 | 39.34648 | 36.28811 | 35924 ft | 489 kts | 42° |
| 2026-04-22 15:30 | 39.53449 | 36.54314 | 35922 ft | 490 kts | 42° |
| 2026-04-22 15:31 | 39.72156 | 36.79954 | 35982 ft | 490 kts | 42° |
| 2026-04-22 15:31 | 39.80843 | 36.93630 | 35978 ft | 497 kts | 59° |
| 2026-04-22 15:31 | 39.87591 | 37.09308 | 35959 ft | 496 kts | 57° |
| 2026-04-22 15:32 | 40.01130 | 37.40670 | 35900 ft | 497 kts | 58° |
| 2026-04-22 15:32 | 40.14626 | 37.72220 | 35904 ft | 497 kts | 58° |
| 2026-04-22 15:33 | 40.28095 | 38.03918 | 35904 ft | 498 kts | 58° |
| 2026-04-22 15:33 | 40.40945 | 38.35214 | 35730 ft | 484 kts | 61° |
| 2026-04-22 15:33 | 40.47822 | 38.50779 | 35941 ft | 493 kts | 57° |
| 2026-04-22 15:34 | 40.54504 | 38.66685 | 36090 ft | 496 kts | 59° |
| 2026-04-22 15:34 | 40.60905 | 38.82591 | 35939 ft | 501 kts | 59° |
| 2026-04-22 15:34 | 40.67456 | 38.98726 | 35801 ft | 502 kts | 59° |
| 2026-04-22 15:34 | 40.73927 | 39.14896 | 35923 ft | 495 kts | 60° |
| 2026-04-22 15:35 | 40.78306 | 39.25875 | 35805 ft | 499 kts | 60° |
| 2026-04-22 15:35 | 40.86860 | 39.47349 | 35950 ft | 503 kts | 60° |
| 2026-04-22 15:35 | 40.93420 | 39.63976 | 35808 ft | 503 kts | 60° |
| 2026-04-22 15:35 | 40.99463 | 39.80286 | 35934 ft | 498 kts | 71° |
| 2026-04-22 15:36 | 41.02316 | 39.98300 | 36056 ft | 501 kts | 78° |
| 2026-04-22 15:36 | 41.05053 | 40.16536 | 35896 ft | 508 kts | 78° |
| 2026-04-22 15:36 | 41.07703 | 40.34615 | 35842 ft | 505 kts | 79° |
| 2026-04-22 15:36 | 41.10387 | 40.53072 | 36027 ft | 499 kts | 79° |
| 2026-04-22 15:37 | 41.12962 | 40.71063 | 35978 ft | 504 kts | 79° |
| 2026-04-22 15:37 | 41.15560 | 40.89371 | 35788 ft | 505 kts | 79° |
| 2026-04-22 15:37 | 41.18124 | 41.07638 | 35886 ft | 500 kts | 79° |
| 2026-04-22 15:37 | 41.20640 | 41.25876 | 36078 ft | 499 kts | 79° |
| 2026-04-22 15:38 | 41.23127 | 41.44121 | 35916 ft | 506 kts | 79° |
| 2026-04-22 15:38 | 41.30459 | 41.99059 | 36053 ft | 502 kts | 80° |
| 2026-04-22 15:39 | 41.32820 | 42.17432 | 35859 ft | 507 kts | 80° |
| 2026-04-22 15:39 | 41.35149 | 42.35778 | 35894 ft | 501 kts | 80° |
| 2026-04-22 15:39 | 41.37455 | 42.54162 | 36069 ft | 500 kts | 81° |
| 2026-04-22 15:39 | 41.39727 | 42.72614 | 35978 ft | 508 kts | 81° |
| 2026-04-22 15:40 | 41.41979 | 42.91052 | 35821 ft | 505 kts | 81° |
| 2026-04-22 15:40 | 41.43653 | 43.04953 | 35827 ft | 506 kts | 81° |
| 2026-04-22 15:40 | 41.44200 | 43.09514 | 35968 ft | 505 kts | 81° |
| 2026-04-22 15:40 | 41.44756 | 43.14144 | 35901 ft | 505 kts | 81° |
| 2026-04-22 15:41 | 41.45310 | 43.18757 | 35647 ft | 503 kts | 81° |
| 2026-04-22 15:41 | 41.45859 | 43.23355 | 35397 ft | 501 kts | 81° |
| 2026-04-22 15:41 | 41.46404 | 43.27959 | 35150 ft | 500 kts | 81° |
| 2026-04-22 15:41 | 41.46940 | 43.32529 | 34906 ft | 500 kts | 81° |
| 2026-04-22 15:42 | 41.47473 | 43.37120 | 34665 ft | 500 kts | 81° |
| 2026-04-22 15:42 | 41.48002 | 43.41699 | 34424 ft | 499 kts | 81° |
| 2026-04-22 15:42 | 41.48531 | 43.46279 | 34185 ft | 498 kts | 81° |
| 2026-04-22 15:42 | 41.49060 | 43.50838 | 33949 ft | 498 kts | 81° |
| 2026-04-22 15:43 | 41.49592 | 43.55409 | 33674 ft | 498 kts | 81° |
| 2026-04-22 15:43 | 41.50122 | 43.59977 | 32961 ft | 500 kts | 81° |
| 2026-04-22 15:43 | 41.50656 | 43.64606 | 31675 ft | 509 kts | 81° |
| 2026-04-22 15:43 | 41.51182 | 43.69214 | 30890 ft | 506 kts | 80° |
| 2026-04-22 15:44 | 41.51713 | 43.73918 | 29880 ft | 506 kts | 80° |
| 2026-04-22 15:44 | 41.52231 | 43.78516 | 28636 ft | 509 kts | 81° |
| 2026-04-22 15:44 | 41.52760 | 43.83196 | 27293 ft | 506 kts | 81° |
| 2026-04-22 15:44 | 41.53281 | 43.87832 | 25222 ft | 506 kts | 81° |
| 2026-04-22 15:45 | 41.53805 | 43.92493 | 23233 ft | 508 kts | 81° |
| 2026-04-22 15:45 | 41.54320 | 43.97086 | 22130 ft | 488 kts | 81° |
| 2026-04-22 15:45 | 41.54805 | 44.01455 | 21355 ft | 464 kts | 81° |
| 2026-04-22 15:45 | 41.55275 | 44.05684 | 20424 ft | 459 kts | 81° |
| 2026-04-22 15:46 | 41.55742 | 44.09863 | 19501 ft | 453 kts | 81° |
| 2026-04-22 15:46 | 41.56200 | 44.13996 | 18621 ft | 447 kts | 82° |
| 2026-04-22 15:46 | 41.56647 | 44.18073 | 17687 ft | 441 kts | 82° |
| 2026-04-22 15:46 | 41.56930 | 44.22133 | 16889 ft | 435 kts | 90° |
| 2026-04-22 15:47 | 41.56779 | 44.26131 | 16118 ft | 428 kts | 99° |
| 2026-04-22 15:47 | 41.56293 | 44.30024 | 15391 ft | 421 kts | 102° |
| 2026-04-22 15:47 | 41.55785 | 44.33861 | 14689 ft | 419 kts | 103° |
| 2026-04-22 15:47 | 41.55287 | 44.37638 | 14000 ft | 417 kts | 103° |
| 2026-04-22 15:48 | 41.54789 | 44.41438 | 13275 ft | 414 kts | 103° |
| 2026-04-22 15:48 | 41.54296 | 44.45203 | 12624 ft | 409 kts | 103° |
| 2026-04-22 15:48 | 41.53806 | 44.48975 | 11932 ft | 405 kts | 103° |
| 2026-04-22 15:48 | 41.53333 | 44.52609 | 11309 ft | 399 kts | 102° |
| 2026-04-22 15:49 | 41.52867 | 44.56183 | 11139 ft | 382 kts | 102° |
| 2026-04-22 15:49 | 41.52422 | 44.59591 | 11013 ft | 364 kts | 103° |
| 2026-04-22 15:49 | 41.51995 | 44.62844 | 10879 ft | 344 kts | 103° |
| 2026-04-22 15:49 | 41.51599 | 44.65859 | 10718 ft | 318 kts | 103° |
| 2026-04-22 15:50 | 41.51220 | 44.68708 | 10416 ft | 309 kts | 103° |
| 2026-04-22 15:50 | 41.50841 | 44.71518 | 10170 ft | 305 kts | 103° |
| 2026-04-22 15:50 | 41.50464 | 44.74286 | 9945 ft | 303 kts | 103° |
| 2026-04-22 15:50 | 41.50090 | 44.77042 | 9827 ft | 302 kts | 103° |
| 2026-04-22 15:51 | 41.49718 | 44.79803 | 9476 ft | 300 kts | 103° |
| 2026-04-22 15:51 | 41.49354 | 44.82512 | 9028 ft | 294 kts | 102° |
| 2026-04-22 15:51 | 41.48994 | 44.85176 | 8560 ft | 290 kts | 102° |
| 2026-04-22 15:51 | 41.48640 | 44.87788 | 8108 ft | 287 kts | 102° |
| 2026-04-22 15:52 | 41.48284 | 44.90389 | 7651 ft | 280 kts | 101° |
| 2026-04-22 15:52 | 41.47943 | 44.92891 | 7204 ft | 270 kts | 101° |
| 2026-04-22 15:52 | 41.47610 | 44.95317 | 6766 ft | 261 kts | 100° |
| 2026-04-22 15:52 | 41.47289 | 44.97663 | 6335 ft | 253 kts | 99° |
| 2026-04-22 15:53 | 41.46978 | 44.99936 | 5866 ft | 246 kts | 99° |
| 2026-04-22 15:53 | 41.46676 | 45.02157 | 5399 ft | 242 kts | 98° |
| 2026-04-22 15:53 | 41.46591 | 45.04407 | 4956 ft | 245 kts | 82° |
| 2026-04-22 15:53 | 41.47029 | 45.06596 | 4503 ft | 245 kts | 63° |
| 2026-04-22 15:54 | 41.47930 | 45.08465 | 4080 ft | 242 kts | 45° |
| 2026-04-22 15:54 | 41.49078 | 45.10054 | 3996 ft | 234 kts | 44° |
| 2026-04-22 15:54 | 41.50242 | 45.11482 | 3995 ft | 218 kts | 29° |
| 2026-04-22 15:54 | 41.51609 | 45.12139 | 3993 ft | 207 kts | 4° |
| 2026-04-22 15:55 | 41.53026 | 45.11978 | 3996 ft | 202 kts | 341° |
| 2026-04-22 15:55 | 41.54207 | 45.11103 | 3992 ft | 190 kts | 318° |
| 2026-04-22 15:55 | 41.55153 | 45.09919 | 3990 ft | 182 kts | 317° |
| 2026-04-22 15:55 | 41.56056 | 45.08783 | 3987 ft | 176 kts | 317° |
| 2026-04-22 15:56 | 41.56941 | 45.07672 | 3864 ft | 173 kts | 316° |
| 2026-04-22 15:56 | 41.57808 | 45.06581 | 3700 ft | 168 kts | 316° |
| 2026-04-22 15:56 | 41.58641 | 45.05534 | 3482 ft | 164 kts | 317° |
| 2026-04-22 15:56 | 41.59196 | 45.04838 | 3329 ft | 161 kts | 318° |
| 2026-04-22 15:57 | 41.59979 | 45.03851 | 3143 ft | 146 kts | 316° |
| 2026-04-22 15:57 | 41.60928 | 45.02658 | 2863 ft | 138 kts | 316° |
| 2026-04-22 15:57 | 41.61636 | 45.01765 | 2678 ft | 140 kts | 314° |
| 2026-04-22 15:57 | 41.62349 | 45.00866 | 2490 ft | 142 kts | 315° |
| 2026-04-22 15:58 | 41.62822 | 45.00271 | 2368 ft | 141 kts | 315° |
| 2026-04-22 15:58 | 41.63536 | 44.99372 | 2192 ft | 135 kts | 314° |
| 2026-04-22 15:58 | 41.64195 | 44.98539 | 2003 ft | 132 kts | 315° |
| 2026-04-22 15:58 | 41.64862 | 44.97700 | 1849 ft | 132 kts | 316° |
| 2026-04-22 15:59 | 41.65530 | 44.96859 | 1672 ft | 131 kts | 316° |
| 2026-04-22 15:59 | 41.66179 | 44.96037 | 1531 ft | 124 kts | 314° |
| 2026-04-22 15:59 | 41.66685 | 44.95399 | 1525 ft | 59 kts | 317° |
| 2026-04-22 15:59 | 41.66858 | 44.95188 | 1522 ft | 15 kts | 333° |
| 2026-04-22 16:00 | 41.66947 | 44.95257 | 1525 ft | 16 kts | 44° |
| 2026-04-22 16:00 | 41.67027 | 44.95359 | 1521 ft | 16 kts | 43° |
| 2026-04-22 16:00 | 41.67107 | 44.95464 | 1524 ft | 16 kts | 44° |
| 2026-04-22 16:00 | 41.67178 | 44.95553 | 1519 ft | 13 kts | 43° |
| 2026-04-22 16:01 | 41.67236 | 44.95632 | 1523 ft | 11 kts | 59° |
| 2026-04-22 16:01 | 41.67194 | 44.95722 | 1521 ft | 19 kts | 135° |
| 2026-04-22 16:01 | 41.67076 | 44.95890 | 1521 ft | 27 kts | 126° |
| 2026-04-22 16:01 | 41.66955 | 44.96091 | 1523 ft | 27 kts | 132° |
| 2026-04-22 16:02 | 41.66891 | 44.96190 | 1524 ft | 8 kts | 129° |
| 2026-04-22 16:02 | 41.66858 | 44.96241 | 1519 ft | 7 kts | 133° |
| 2026-04-22 16:02 | 41.66827 | 44.96284 | 1522 ft | 6 kts | 133° |
| 2026-04-22 16:02 | 41.66813 | 44.96326 | 1522 ft | 4 kts | 86° |
| 2026-04-22 16:03 | 41.66833 | 44.96356 | 1520 ft | 6 kts | 45° |
| 2026-04-22 16:03 | 41.66851 | 44.96379 | 1527 ft | 2 kts | 44° |
| 2026-04-22 16:03 | 41.66858 | 44.96389 | 1527 ft | 1 kts | 44° |
| 2026-04-22 16:03 | 41.66863 | 44.96394 | 1520 ft | 1 kts | 43° |
| 2026-04-22 16:04 | 41.66864 | 44.96396 | 1527 ft | 0 kts | 43° |